Tatsuhiro Maru No.8 — JL6336 — position and weather

sailwx.info

Track history (hours):
 
Tides and Currents Weather Stations Pressure Air Temp Water Temp Dewpoint Dewpoint Depression Visibility Wind Speed Wind Dir Waves Ship Positions

Tatsuhiro Maru No.8

Last reported at 2018-Jan-22 00:43 UTC. Time now 2018-Jan-22 14:07 UTC.
Position N 34°23' E 134°19'.

Length 71 m; draft 4.9 m.

Type: Ship (hazmat cat A). MMSI: 431500394.

Date/timePositionNaut miles runAvg speedWind from/ knotsBaromVisibWave heightAir tempDewpointWater temp
2018-Jan-22 00:43N 34°23' E 134°19'312.3
2018-Jan-22 00:29N 34°22' E 134°22'612.1
2018-Jan-22 00:00N 34°19' E 134°29'612.2
2018-Jan-21 23:29N 34°16' E 134°36'511.3
2018-Jan-21 23:00N 34°13' E 134°40'611.0
2018-Jan-21 22:29N 34°08' E 134°45'611.9
2018-Jan-21 22:00N 34°04' E 134°49'611.9
2018-Jan-21 21:30N 33°60' E 134°54'611.7
2018-Jan-21 21:00N 33°55' E 134°59'611.4
2018-Jan-21 20:30N 33°51' E 135°03'103 8.3
2018-Jan-21 08:04N 34°37' E 136°54'111.1
2018-Jan-21 07:57N 34°38' E 136°53'511.6
2018-Jan-21 07:30N 34°42' E 136°49'612.4
2018-Jan-21 06:59N 34°48' E 136°46'612.2
2018-Jan-21 06:30N 34°54' E 136°46'611.5
2018-Jan-21 06:00N 34°59' E 136°49'2 4.4
2018-Jan-21 05:30N 35°00' E 136°51'0 0.0
2018-Jan-21 05:00N 35°00' E 136°51'0 0.0
2018-Jan-21 04:30N 35°00' E 136°51'0 0.0
2018-Jan-21 04:00N 35°00' E 136°51'0 0.0
2018-Jan-21 03:27N 35°00' E 136°51'0 0.0
2018-Jan-21 03:00N 35°00' E 136°51'0 0.0
2018-Jan-21 02:30N 35°00' E 136°51'0 0.0
2018-Jan-21 01:57N 35°00' E 136°51'0 0.0
2018-Jan-21 01:30N 35°00' E 136°51'0 0.0
2018-Jan-21 01:00N 35°00' E 136°51'0 0.0
2018-Jan-21 00:30N 35°00' E 136°51'0 0.0
2018-Jan-21 00:00N 35°00' E 136°51'0 0.0
2018-Jan-20 23:30N 35°00' E 136°51'1 1.3
2018-Jan-20 23:00N 35°00' E 136°50'4 8.9
2018-Jan-20 22:30N 35°04' E 136°52'1 1.6
2018-Jan-20 21:58N 35°05' E 136°52'0 0.0
2018-Jan-20 21:28N 35°05' E 136°52'0 0.0
2018-Jan-20 20:58N 35°05' E 136°52'0 0.0
2018-Jan-20 20:28N 35°05' E 136°52'0 0.0
2018-Jan-20 19:59N 35°05' E 136°52'0 0.0
2018-Jan-20 19:28N 35°05' E 136°52'0 0.0
2018-Jan-20 18:58N 35°05' E 136°52'0 0.0
2018-Jan-20 18:28N 35°05' E 136°52'0 0.0
2018-Jan-20 17:58N 35°05' E 136°52'0 0.0
2018-Jan-20 17:28N 35°05' E 136°52'0 0.0
2018-Jan-20 16:58N 35°05' E 136°52'0 0.0
2018-Jan-20 16:25N 35°05' E 136°52'0 0.0
2018-Jan-20 15:59N 35°05' E 136°52'0 0.0
2018-Jan-20 15:28N 35°05' E 136°52'0 0.0
2018-Jan-20 14:58N 35°05' E 136°52'0 0.0
2018-Jan-20 14:25N 35°05' E 136°52'0 0.0
2018-Jan-20 13:58N 35°05' E 136°52'0 0.0
2018-Jan-20 13:30N 35°05' E 136°52'0 0.0
2018-Jan-20 13:00N 35°05' E 136°52'0 0.0
2018-Jan-20 12:30N 35°05' E 136°52'0 0.0
2018-Jan-20 12:00N 35°05' E 136°52'0 0.0
2018-Jan-20 11:30N 35°05' E 136°52'0 0.0
2018-Jan-20 11:00N 35°05' E 136°52'0 0.0
2018-Jan-20 10:30N 35°05' E 136°52'0 0.0
2018-Jan-20 10:00N 35°05' E 136°52'0 0.0
2018-Jan-20 09:30N 35°05' E 136°52'0 0.0
2018-Jan-20 09:00N 35°05' E 136°52'0 0.0
2018-Jan-20 08:30N 35°05' E 136°52'0 0.0
2018-Jan-20 08:00N 35°05' E 136°52'0 0.0
2018-Jan-20 07:30N 35°05' E 136°52'0 0.0
2018-Jan-20 07:00N 35°05' E 136°52'0 0.0
2018-Jan-20 06:30N 35°05' E 136°52'0 0.0
2018-Jan-20 06:00N 35°05' E 136°52'0 0.0
2018-Jan-20 05:30N 35°05' E 136°52'0 0.0
2018-Jan-20 05:00N 35°05' E 136°52'0 0.0
2018-Jan-20 04:30N 35°05' E 136°52'0 0.0
2018-Jan-20 04:00N 35°05' E 136°52'0 0.0
2018-Jan-20 03:30N 35°05' E 136°52'0 0.0
2018-Jan-20 03:00N 35°05' E 136°52'2 4.0
2018-Jan-20 02:30N 35°03' E 136°52'510.7
2018-Jan-20 02:00N 34°59' E 136°49'611.6
2018-Jan-20 01:30N 34°53' E 136°47'611.7
2018-Jan-20 01:00N 34°47' E 136°48'611.7
2018-Jan-20 00:30N 34°42' E 136°51'612.0
2018-Jan-19 23:59N 34°37' E 136°56'612.4
2018-Jan-19 23:30N 34°33' E 137°01'2611.6
2018-Jan-19 21:16N 34°09' E 136°48'86 9.7
2018-Jan-19 12:26N 33°47' E 135°08'612.5
2018-Jan-19 11:59N 33°51' E 135°03'612.7
2018-Jan-19 11:30N 33°56' E 134°58'612.4
2018-Jan-19 11:00N 34°00' E 134°54'612.3
2018-Jan-19 10:30N 34°05' E 134°49'712.5
2018-Jan-19 09:54N 34°10' E 134°43'511.8
2018-Jan-19 09:29N 34°14' E 134°39'511.3
2018-Jan-19 09:00N 34°17' E 134°33'612.5
2018-Jan-19 08:30N 34°19' E 134°26'612.6
2018-Jan-19 08:00N 34°22' E 134°19'  
2018-Jan-12 15:00N 33°58' E 130°40'510.6
2018-Jan-12 14:30N 33°58' E 130°47'5 9.4
2018-Jan-12 14:00N 33°57' E 130°52'3 6.6
2018-Jan-12 13:30N 33°55' E 130°56'4 8.6
2018-Jan-12 13:00N 33°59' E 130°59'510.1
2018-Jan-12 12:30N 33°57' E 131°05'510.7
2018-Jan-12 12:00N 33°54' E 131°10'510.9
2018-Jan-12 11:30N 33°52' E 131°16'611.2
2018-Jan-12 11:01N 33°51' E 131°23'611.1
2018-Jan-12 10:31N 33°50' E 131°30'611.0
2018-Jan-12 10:00N 33°49' E 131°36'611.0
2018-Jan-12 09:30N 33°48' E 131°43'611.0
2018-Jan-12 08:58N 33°47' E 131°50'910.7
2018-Jan-12 08:05N 33°46' E 132°01'110.8
2018-Jan-12 07:58N 33°46' E 132°02'710.6
2018-Jan-12 07:21N 33°50' E 132°09'410.1
2018-Jan-12 06:56N 33°54' E 132°09'5 8.1
2018-Jan-12 06:21N 33°58' E 132°12'411.0
2018-Jan-12 05:59N 34°02' E 132°14'511.5
2018-Jan-12 05:30N 34°06' E 132°17'510.4
2018-Jan-12 05:00N 34°12' E 132°15'1 1.2
2018-Jan-12 04:26N 34°12' E 132°15'0 0.0
2018-Jan-12 03:53N 34°12' E 132°15'0 0.0
2018-Jan-12 03:26N 34°12' E 132°15'0 0.0
2018-Jan-12 02:59N 34°12' E 132°15'0 0.0
2018-Jan-12 01:53N 34°12' E 132°15'0 0.0
2018-Jan-12 01:30N 34°12' E 132°15'1 1.8
2018-Jan-12 01:00N 34°12' E 132°16'  
Track history (hours):
 
Tides and Currents Weather Stations Pressure Air Temp Water Temp Dewpoint Dewpoint Depression Visibility Wind Speed Wind Dir Waves Ship Positions

Tatsuhiro Maru No.8

Last reported at 2018-Jan-22 00:43 UTC. Time now 2018-Jan-22 14:07 UTC.
Position N 34°23' E 134°19'.

Length 71 m; draft 4.9 m.

Type: Ship (hazmat cat A). MMSI: 431500394.

Date/timePositionNaut miles runAvg speedWind from/ knotsBaromVisibWave heightAir tempDewpointWater temp
2018-Jan-22 00:43N 34°23' E 134°19'312.3
2018-Jan-22 00:29N 34°22' E 134°22'612.1
2018-Jan-22 00:00N 34°19' E 134°29'612.2
2018-Jan-21 23:29N 34°16' E 134°36'511.3
2018-Jan-21 23:00N 34°13' E 134°40'611.0
2018-Jan-21 22:29N 34°08' E 134°45'611.9
2018-Jan-21 22:00N 34°04' E 134°49'611.9
2018-Jan-21 21:30N 33°60' E 134°54'611.7
2018-Jan-21 21:00N 33°55' E 134°59'611.4
2018-Jan-21 20:30N 33°51' E 135°03'103 8.3
2018-Jan-21 08:04N 34°37' E 136°54'111.1
2018-Jan-21 07:57N 34°38' E 136°53'511.6
2018-Jan-21 07:30N 34°42' E 136°49'612.4
2018-Jan-21 06:59N 34°48' E 136°46'612.2
2018-Jan-21 06:30N 34°54' E 136°46'611.5
2018-Jan-21 06:00N 34°59' E 136°49'2 4.4
2018-Jan-21 05:30N 35°00' E 136°51'0 0.0
2018-Jan-21 05:00N 35°00' E 136°51'0 0.0
2018-Jan-21 04:30N 35°00' E 136°51'0 0.0
2018-Jan-21 04:00N 35°00' E 136°51'0 0.0
2018-Jan-21 03:27N 35°00' E 136°51'0 0.0
2018-Jan-21 03:00N 35°00' E 136°51'0 0.0
2018-Jan-21 02:30N 35°00' E 136°51'0 0.0
2018-Jan-21 01:57N 35°00' E 136°51'0 0.0
2018-Jan-21 01:30N 35°00' E 136°51'0 0.0
2018-Jan-21 01:00N 35°00' E 136°51'0 0.0
2018-Jan-21 00:30N 35°00' E 136°51'0 0.0
2018-Jan-21 00:00N 35°00' E 136°51'0 0.0
2018-Jan-20 23:30N 35°00' E 136°51'1 1.3
2018-Jan-20 23:00N 35°00' E 136°50'4 8.9
2018-Jan-20 22:30N 35°04' E 136°52'1 1.6
2018-Jan-20 21:58N 35°05' E 136°52'0 0.0
2018-Jan-20 21:28N 35°05' E 136°52'0 0.0
2018-Jan-20 20:58N 35°05' E 136°52'0 0.0
2018-Jan-20 20:28N 35°05' E 136°52'0 0.0
2018-Jan-20 19:59N 35°05' E 136°52'0 0.0
2018-Jan-20 19:28N 35°05' E 136°52'0 0.0
2018-Jan-20 18:58N 35°05' E 136°52'0 0.0
2018-Jan-20 18:28N 35°05' E 136°52'0 0.0
2018-Jan-20 17:58N 35°05' E 136°52'0 0.0
2018-Jan-20 17:28N 35°05' E 136°52'0 0.0
2018-Jan-20 16:58N 35°05' E 136°52'0 0.0
2018-Jan-20 16:25N 35°05' E 136°52'0 0.0
2018-Jan-20 15:59N 35°05' E 136°52'0 0.0
2018-Jan-20 15:28N 35°05' E 136°52'0 0.0
2018-Jan-20 14:58N 35°05' E 136°52'0 0.0
2018-Jan-20 14:25N 35°05' E 136°52'0 0.0
2018-Jan-20 13:58N 35°05' E 136°52'0 0.0
2018-Jan-20 13:30N 35°05' E 136°52'0 0.0
2018-Jan-20 13:00N 35°05' E 136°52'0 0.0
2018-Jan-20 12:30N 35°05' E 136°52'0 0.0
2018-Jan-20 12:00N 35°05' E 136°52'0 0.0
2018-Jan-20 11:30N 35°05' E 136°52'0 0.0
2018-Jan-20 11:00N 35°05' E 136°52'0 0.0
2018-Jan-20 10:30N 35°05' E 136°52'0 0.0
2018-Jan-20 10:00N 35°05' E 136°52'0 0.0
2018-Jan-20 09:30N 35°05' E 136°52'0 0.0
2018-Jan-20 09:00N 35°05' E 136°52'0 0.0
2018-Jan-20 08:30N 35°05' E 136°52'0 0.0
2018-Jan-20 08:00N 35°05' E 136°52'0 0.0
2018-Jan-20 07:30N 35°05' E 136°52'0 0.0
2018-Jan-20 07:00N 35°05' E 136°52'0 0.0
2018-Jan-20 06:30N 35°05' E 136°52'0 0.0
2018-Jan-20 06:00N 35°05' E 136°52'0 0.0
2018-Jan-20 05:30N 35°05' E 136°52'0 0.0
2018-Jan-20 05:00N 35°05' E 136°52'0 0.0
2018-Jan-20 04:30N 35°05' E 136°52'0 0.0
2018-Jan-20 04:00N 35°05' E 136°52'0 0.0
2018-Jan-20 03:30N 35°05' E 136°52'0 0.0
2018-Jan-20 03:00N 35°05' E 136°52'2 4.0
2018-Jan-20 02:30N 35°03' E 136°52'510.7
2018-Jan-20 02:00N 34°59' E 136°49'611.6
2018-Jan-20 01:30N 34°53' E 136°47'611.7
2018-Jan-20 01:00N 34°47' E 136°48'611.7
2018-Jan-20 00:30N 34°42' E 136°51'612.0
2018-Jan-19 23:59N 34°37' E 136°56'612.4
2018-Jan-19 23:30N 34°33' E 137°01'2611.6
2018-Jan-19 21:16N 34°09' E 136°48'86 9.7
2018-Jan-19 12:26N 33°47' E 135°08'612.5
2018-Jan-19 11:59N 33°51' E 135°03'612.7
2018-Jan-19 11:30N 33°56' E 134°58'612.4
2018-Jan-19 11:00N 34°00' E 134°54'612.3
2018-Jan-19 10:30N 34°05' E 134°49'712.5
2018-Jan-19 09:54N 34°10' E 134°43'511.8
2018-Jan-19 09:29N 34°14' E 134°39'511.3
2018-Jan-19 09:00N 34°17' E 134°33'612.5
2018-Jan-19 08:30N 34°19' E 134°26'612.6
2018-Jan-19 08:00N 34°22' E 134°19'  
2018-Jan-12 15:00N 33°58' E 130°40'510.6
2018-Jan-12 14:30N 33°58' E 130°47'5 9.4
2018-Jan-12 14:00N 33°57' E 130°52'3 6.6
2018-Jan-12 13:30N 33°55' E 130°56'4 8.6
2018-Jan-12 13:00N 33°59' E 130°59'510.1
2018-Jan-12 12:30N 33°57' E 131°05'510.7
2018-Jan-12 12:00N 33°54' E 131°10'510.9
2018-Jan-12 11:30N 33°52' E 131°16'611.2
2018-Jan-12 11:01N 33°51' E 131°23'611.1
2018-Jan-12 10:31N 33°50' E 131°30'611.0
2018-Jan-12 10:00N 33°49' E 131°36'611.0
2018-Jan-12 09:30N 33°48' E 131°43'611.0
2018-Jan-12 08:58N 33°47' E 131°50'910.7
2018-Jan-12 08:05N 33°46' E 132°01'110.8
2018-Jan-12 07:58N 33°46' E 132°02'710.6
2018-Jan-12 07:21N 33°50' E 132°09'410.1
2018-Jan-12 06:56N 33°54' E 132°09'5 8.1
2018-Jan-12 06:21N 33°58' E 132°12'411.0
2018-Jan-12 05:59N 34°02' E 132°14'511.5
2018-Jan-12 05:30N 34°06' E 132°17'510.4
2018-Jan-12 05:00N 34°12' E 132°15'1 1.2
2018-Jan-12 04:26N 34°12' E 132°15'0 0.0
2018-Jan-12 03:53N 34°12' E 132°15'0 0.0
2018-Jan-12 03:26N 34°12' E 132°15'0 0.0
2018-Jan-12 02:59N 34°12' E 132°15'0 0.0
2018-Jan-12 01:53N 34°12' E 132°15'0 0.0
2018-Jan-12 01:30N 34°12' E 132°15'1 1.8
2018-Jan-12 01:00N 34°12' E 132°16'  

Dump ship's entire track history